Oak Grove, Louisiana
Current Conditions -  °F | °C
As of 3:15 AM on Friday 19 Dec 2014 (Local Time) from KBQP Reporting Station
Overcast Overcast  
Wind Chill: 46°   Ceiling: 2800
Heat Index: 46°   Visibility: 10mi
Dew Point: 44°   Wind: 3mph
Humidity: 92%   Direction: 20°NNE
Pressure: 30.16"   Gusts: NA
Location:  32.86°N, 91.39°W
Report Text: KBQP 190915Z AUTO 02003KT 10SM OVC028 08/07 A3016 RMK AO2 T00780066
Loading
Personal Weather Stations






























Interactive Weather Map New forecast layout! Learn more

10-Day Weather Forecast

Advertisements
Track Severe Weather on mobile